sensor_id;sensor_type;location;lat;lon;timestamp;P1;durP1;ratioP1;P2;durP2;ratioP2
37151;SDS011;23046;50.112;8.952;2023-05-13T00:00:08;2.60;;;2.40;;
37151;SDS011;23046;50.112;8.952;2023-05-13T00:00:19;2.70;;;2.50;;
37151;SDS011;23046;50.112;8.952;2023-05-13T00:00:29;2.77;;;2.57;;
37151;SDS011;23046;50.112;8.952;2023-05-13T00:00:40;2.70;;;2.50;;
37151;SDS011;23046;50.112;8.952;2023-05-13T00:00:50;2.63;;;2.43;;
37151;SDS011;23046;50.112;8.952;2023-05-13T00:01:00;2.67;;;2.43;;
37151;SDS011;23046;50.112;8.952;2023-05-13T00:01:10;3.45;;;2.50;;
37151;SDS011;23046;50.112;8.952;2023-05-13T00:01:20;3.70;;;2.50;;
37151;SDS011;23046;50.112;8.952;2023-05-13T00:01:31;3.33;;;2.50;;
37151;SDS011;23046;50.112;8.952;2023-05-13T00:01:47;2.88;;;2.60;;
37151;SDS011;23046;50.112;8.952;2023-05-13T00:01:57;2.80;;;2.60;;
37151;SDS011;23046;50.112;8.952;2023-05-13T00:02:08;2.65;;;2.45;;
37151;SDS011;23046;50.112;8.952;2023-05-13T00:02:18;2.42;;;2.30;;
37151;SDS011;23046;50.112;8.952;2023-05-13T00:02:29;2.40;;;2.20;;
37151;SDS011;23046;50.112;8.952;2023-05-13T00:02:39;3.00;;;2.33;;
37151;SDS011;23046;50.112;8.952;2023-05-13T00:02:49;2.87;;;2.40;;
37151;SDS011;23046;50.112;8.952;2023-05-13T00:02:59;2.63;;;2.43;;
37151;SDS011;23046;50.112;8.952;2023-05-13T00:03:09;2.70;;;2.50;;
37151;SDS011;23046;50.112;8.952;2023-05-13T00:03:20;2.90;;;2.60;;
37151;SDS011;23046;50.112;8.952;2023-05-13T00:03:30;3.30;;;2.53;;
37151;SDS011;23046;50.112;8.952;2023-05-13T00:03:41;3.42;;;2.47;;
37151;SDS011;23046;50.112;8.952;2023-05-13T00:03:51;3.37;;;2.50;;
37151;SDS011;23046;50.112;8.952;2023-05-13T00:04:01;2.97;;;2.50;;
37151;SDS011;23046;50.112;8.952;2023-05-13T00:04:11;2.67;;;2.47;;
37151;SDS011;23046;50.112;8.952;2023-05-13T00:04:22;3.10;;;2.50;;
37151;SDS011;23046;50.112;8.952;2023-05-13T00:04:32;3.43;;;2.60;;
37151;SDS011;23046;50.112;8.952;2023-05-13T00:04:42;3.30;;;2.50;;
37151;SDS011;23046;50.112;8.952;2023-05-13T00:04:52;2.77;;;2.57;;
37151;SDS011;23046;50.112;8.952;2023-05-13T00:05:03;2.88;;;2.67;;
37151;SDS011;23046;50.112;8.952;2023-05-13T00:05:13;2.90;;;2.70;;
37151;SDS011;23046;50.112;8.952;2023-05-13T00:05:23;2.97;;;2.77;;
37151;SDS011;23046;50.112;8.952;2023-05-13T00:05:33;2.77;;;2.57;;
37151;SDS011;23046;50.112;8.952;2023-05-13T00:05:43;2.90;;;2.50;;
37151;SDS011;23046;50.112;8.952;2023-05-13T00:05:54;2.97;;;2.33;;
37151;SDS011;23046;50.112;8.952;2023-05-13T00:06:05;3.25;;;2.50;;
37151;SDS011;23046;50.112;8.952;2023-05-13T00:06:16;3.78;;;2.60;;
37151;SDS011;23046;50.112;8.952;2023-05-13T00:06:26;5.80;;;2.70;;
37151;SDS011;23046;50.112;8.952;2023-05-13T00:06:36;5.73;;;2.67;;
37151;SDS011;23046;50.112;8.952;2023-05-13T00:06:46;4.50;;;2.60;;
37151;SDS011;23046;50.112;8.952;2023-05-13T00:06:56;2.80;;;2.60;;
37151;SDS011;23046;50.112;8.952;2023-05-13T00:07:07;2.83;;;2.60;;
37151;SDS011;23046;50.112;8.952;2023-05-13T00:07:17;2.67;;;2.47;;
37151;SDS011;23046;50.112;8.952;2023-05-13T00:07:27;2.50;;;2.30;;
37151;SDS011;23046;50.112;8.952;2023-05-13T00:07:37;2.40;;;2.30;;
37151;SDS011;23046;50.112;8.952;2023-05-13T00:07:47;2.63;;;2.43;;
37151;SDS011;23046;50.112;8.952;2023-05-13T00:07:58;2.67;;;2.47;;
37151;SDS011;23046;50.112;8.952;2023-05-13T00:08:10;2.58;;;2.42;;
37151;SDS011;23046;50.112;8.952;2023-05-13T00:08:21;2.47;;;2.38;;
37151;SDS011;23046;50.112;8.952;2023-05-13T00:08:31;2.70;;;2.50;;
37151;SDS011;23046;50.112;8.952;2023-05-13T00:08:41;2.80;;;2.60;;
37151;SDS011;23046;50.112;8.952;2023-05-13T00:08:51;2.77;;;2.57;;
37151;SDS011;23046;50.112;8.952;2023-05-13T00:09:02;2.78;;;2.58;;
37151;SDS011;23046;50.112;8.952;2023-05-13T00:09:12;2.93;;;2.63;;
37151;SDS011;23046;50.112;8.952;2023-05-13T00:09:22;3.10;;;2.80;;
37151;SDS011;23046;50.112;8.952;2023-05-13T00:09:32;4.17;;;2.73;;
37151;SDS011;23046;50.112;8.952;2023-05-13T00:09:43;3.40;;;2.60;;
37151;SDS011;23046;50.112;8.952;2023-05-13T00:09:53;3.35;;;2.45;;
37151;SDS011;23046;50.112;8.952;2023-05-13T00:10:03;2.67;;;2.47;;
37151;SDS011;23046;50.112;8.952;2023-05-13T00:10:13;2.70;;;2.50;;
37151;SDS011;23046;50.112;8.952;2023-05-13T00:10:25;2.97;;;2.70;;
37151;SDS011;23046;50.112;8.952;2023-05-13T00:10:35;3.60;;;2.70;;
37151;SDS011;23046;50.112;8.952;2023-05-13T00:10:45;3.10;;;2.67;;
37151;SDS011;23046;50.112;8.952;2023-05-13T00:10:56;3.50;;;2.70;;
37151;SDS011;23046;50.112;8.952;2023-05-13T00:11:06;2.97;;;2.67;;
37151;SDS011;23046;50.112;8.952;2023-05-13T00:11:16;2.97;;;2.60;;
37151;SDS011;23046;50.112;8.952;2023-05-13T00:11:27;2.83;;;2.63;;
37151;SDS011;23046;50.112;8.952;2023-05-13T00:11:37;2.78;;;2.58;;
37151;SDS011;23046;50.112;8.952;2023-05-13T00:11:47;2.70;;;2.50;;
37151;SDS011;23046;50.112;8.952;2023-05-13T00:11:57;2.43;;;2.23;;
37151;SDS011;23046;50.112;8.952;2023-05-13T00:12:07;2.47;;;2.27;;
37151;SDS011;23046;50.112;8.952;2023-05-13T00:12:18;2.57;;;2.37;;
37151;SDS011;23046;50.112;8.952;2023-05-13T00:12:28;2.67;;;2.47;;
37151;SDS011;23046;50.112;8.952;2023-05-13T00:12:40;2.75;;;2.55;;
37151;SDS011;23046;50.112;8.952;2023-05-13T00:12:50;2.80;;;2.60;;
37151;SDS011;23046;50.112;8.952;2023-05-13T00:13:00;2.73;;;2.53;;
37151;SDS011;23046;50.112;8.952;2023-05-13T00:13:10;3.23;;;2.40;;
37151;SDS011;23046;50.112;8.952;2023-05-13T00:13:21;3.30;;;2.30;;
37151;SDS011;23046;50.112;8.952;2023-05-13T00:13:31;4.20;;;2.40;;
37151;SDS011;23046;50.112;8.952;2023-05-13T00:13:41;2.85;;;2.42;;
37151;SDS011;23046;50.112;8.952;2023-05-13T00:13:52;3.00;;;2.60;;
37151;SDS011;23046;50.112;8.952;2023-05-13T00:14:02;2.78;;;2.58;;
37151;SDS011;23046;50.112;8.952;2023-05-13T00:14:12;2.73;;;2.53;;
37151;SDS011;23046;50.112;8.952;2023-05-13T00:14:23;2.58;;;2.38;;
37151;SDS011;23046;50.112;8.952;2023-05-13T00:14:33;2.50;;;2.30;;
37151;SDS011;23046;50.112;8.952;2023-05-13T00:14:43;2.57;;;2.37;;
37151;SDS011;23046;50.112;8.952;2023-05-13T00:14:54;2.57;;;2.37;;
37151;SDS011;23046;50.112;8.952;2023-05-13T00:15:04;2.60;;;2.40;;
37151;SDS011;23046;50.112;8.952;2023-05-13T00:15:14;2.60;;;2.40;;
37151;SDS011;23046;50.112;8.952;2023-05-13T00:15:25;2.80;;;2.60;;
37151;SDS011;23046;50.112;8.952;2023-05-13T00:15:35;3.33;;;2.60;;
37151;SDS011;23046;50.112;8.952;2023-05-13T00:15:45;3.40;;;2.60;;
37151;SDS011;23046;50.112;8.952;2023-05-13T00:15:56;3.10;;;2.60;;
37151;SDS011;23046;50.112;8.952;2023-05-13T00:16:06;2.70;;;2.50;;
37151;SDS011;23046;50.112;8.952;2023-05-13T00:16:16;2.60;;;2.40;;
37151;SDS011;23046;50.112;8.952;2023-05-13T00:16:26;3.07;;;2.53;;
37151;SDS011;23046;50.112;8.952;2023-05-13T00:16:37;3.25;;;2.75;;
37151;SDS011;23046;50.112;8.952;2023-05-13T00:16:47;2.90;;;2.60;;
37151;SDS011;23046;50.112;8.952;2023-05-13T00:16:58;2.70;;;2.50;;
37151;SDS011;23046;50.112;8.952;2023-05-13T00:17:08;2.70;;;2.50;;
37151;SDS011;23046;50.112;8.952;2023-05-13T00:17:18;2.70;;;2.50;;
37151;SDS011;23046;50.112;8.952;2023-05-13T00:17:28;2.73;;;2.53;;
37151;SDS011;23046;50.112;8.952;2023-05-13T00:17:39;2.50;;;2.33;;
37151;SDS011;23046;50.112;8.952;2023-05-13T00:17:49;2.87;;;2.67;;
37151;SDS011;23046;50.112;8.952;2023-05-13T00:17:59;3.05;;;2.60;;
37151;SDS011;23046;50.112;8.952;2023-05-13T00:18:09;3.57;;;2.70;;
37151;SDS011;23046;50.112;8.952;2023-05-13T00:18:20;3.03;;;2.50;;
37151;SDS011;23046;50.112;8.952;2023-05-13T00:18:30;2.70;;;2.50;;
37151;SDS011;23046;50.112;8.952;2023-05-13T00:18:40;2.50;;;2.40;;
37151;SDS011;23046;50.112;8.952;2023-05-13T00:18:50;2.57;;;2.43;;
37151;SDS011;23046;50.112;8.952;2023-05-13T00:19:00;2.67;;;2.47;;
37151;SDS011;23046;50.112;8.952;2023-05-13T00:19:11;2.80;;;2.60;;
37151;SDS011;23046;50.112;8.952;2023-05-13T00:19:21;2.70;;;2.50;;
37151;SDS011;23046;50.112;8.952;2023-05-13T00:19:31;2.73;;;2.53;;
37151;SDS011;23046;50.112;8.952;2023-05-13T00:19:41;2.88;;;2.45;;
37151;SDS011;23046;50.112;8.952;2023-05-13T00:19:51;2.93;;;2.50;;
37151;SDS011;23046;50.112;8.952;2023-05-13T00:20:02;2.83;;;2.53;;
37151;SDS011;23046;50.112;8.952;2023-05-13T00:20:12;2.85;;;2.65;;
37151;SDS011;23046;50.112;8.952;2023-05-13T00:20:23;3.30;;;2.67;;
37151;SDS011;23046;50.112;8.952;2023-05-13T00:20:33;3.73;;;2.57;;
37151;SDS011;23046;50.112;8.952;2023-05-13T00:20:43;4.00;;;2.50;;
37151;SDS011;23046;50.112;8.952;2023-05-13T00:20:53;3.00;;;2.40;;
37151;SDS011;23046;50.112;8.952;2023-05-13T00:21:05;2.65;;;2.45;;
37151;SDS011;23046;50.112;8.952;2023-05-13T00:21:15;2.40;;;2.28;;
37151;SDS011;23046;50.112;8.952;2023-05-13T00:21:25;2.53;;;2.33;;
37151;SDS011;23046;50.112;8.952;2023-05-13T00:21:36;2.80;;;2.50;;
37151;SDS011;23046;50.112;8.952;2023-05-13T00:21:46;2.85;;;2.50;;
37151;SDS011;23046;50.112;8.952;2023-05-13T00:21:56;2.63;;;2.43;;
37151;SDS011;23046;50.112;8.952;2023-05-13T00:22:07;2.43;;;2.30;;
37151;SDS011;23046;50.112;8.952;2023-05-13T00:22:17;2.60;;;2.40;;
37151;SDS011;23046;50.112;8.952;2023-05-13T00:22:27;2.50;;;2.33;;
37151;SDS011;23046;50.112;8.952;2023-05-13T00:22:37;2.60;;;2.40;;
37151;SDS011;23046;50.112;8.952;2023-05-13T00:22:47;2.80;;;2.60;;
37151;SDS011;23046;50.112;8.952;2023-05-13T00:22:57;2.77;;;2.57;;
37151;SDS011;23046;50.112;8.952;2023-05-13T00:23:08;2.80;;;2.60;;
37151;SDS011;23046;50.112;8.952;2023-05-13T00:23:18;2.55;;;2.40;;
37151;SDS011;23046;50.112;8.952;2023-05-13T00:23:29;2.60;;;2.40;;
37151;SDS011;23046;50.112;8.952;2023-05-13T00:23:39;2.53;;;2.42;;
37151;SDS011;23046;50.112;8.952;2023-05-13T00:23:50;2.75;;;2.55;;
37151;SDS011;23046;50.112;8.952;2023-05-13T00:24:01;2.80;;;2.60;;
37151;SDS011;23046;50.112;8.952;2023-05-13T00:24:11;2.60;;;2.40;;
37151;SDS011;23046;50.112;8.952;2023-05-13T00:24:21;2.67;;;2.47;;
37151;SDS011;23046;50.112;8.952;2023-05-13T00:24:31;2.58;;;2.38;;
37151;SDS011;23046;50.112;8.952;2023-05-13T00:24:41;2.67;;;2.47;;
37151;SDS011;23046;50.112;8.952;2023-05-13T00:24:52;2.60;;;2.40;;
37151;SDS011;23046;50.112;8.952;2023-05-13T00:25:02;2.70;;;2.50;;
37151;SDS011;23046;50.112;8.952;2023-05-13T00:25:13;3.17;;;2.40;;
37151;SDS011;23046;50.112;8.952;2023-05-13T00:25:26;3.53;;;2.40;;
37151;SDS011;23046;50.112;8.952;2023-05-13T00:25:36;2.70;;;2.50;;
37151;SDS011;23046;50.112;8.952;2023-05-13T00:25:47;2.95;;;2.67;;
37151;SDS011;23046;50.112;8.952;2023-05-13T00:25:57;2.67;;;2.47;;
37151;SDS011;23046;50.112;8.952;2023-05-13T00:26:07;2.57;;;2.37;;
37151;SDS011;23046;50.112;8.952;2023-05-13T00:26:17;2.47;;;2.28;;
37151;SDS011;23046;50.112;8.952;2023-05-13T00:26:30;2.67;;;2.47;;
37151;SDS011;23046;50.112;8.952;2023-05-13T00:26:41;2.93;;;2.63;;
37151;SDS011;23046;50.112;8.952;2023-05-13T00:26:51;2.90;;;2.60;;
37151;SDS011;23046;50.112;8.952;2023-05-13T00:27:01;2.77;;;2.50;;
37151;SDS011;23046;50.112;8.952;2023-05-13T00:27:11;2.60;;;2.33;;
37151;SDS011;23046;50.112;8.952;2023-05-13T00:27:22;2.55;;;2.38;;
37151;SDS011;23046;50.112;8.952;2023-05-13T00:27:32;2.70;;;2.50;;
37151;SDS011;23046;50.112;8.952;2023-05-13T00:27:42;2.80;;;2.60;;
37151;SDS011;23046;50.112;8.952;2023-05-13T00:27:52;2.90;;;2.70;;
37151;SDS011;23046;50.112;8.952;2023-05-13T00:28:03;2.83;;;2.63;;
37151;SDS011;23046;50.112;8.952;2023-05-13T00:28:13;2.67;;;2.47;;
37151;SDS011;23046;50.112;8.952;2023-05-13T00:28:24;2.75;;;2.55;;
37151;SDS011;23046;50.112;8.952;2023-05-13T00:28:34;2.80;;;2.60;;
37151;SDS011;23046;50.112;8.952;2023-05-13T00:28:44;3.10;;;2.80;;
37151;SDS011;23046;50.112;8.952;2023-05-13T00:28:54;2.80;;;2.60;;
37151;SDS011;23046;50.112;8.952;2023-05-13T00:29:05;2.83;;;2.63;;
37151;SDS011;23046;50.112;8.952;2023-05-13T00:29:15;2.63;;;2.43;;
37151;SDS011;23046;50.112;8.952;2023-05-13T00:29:25;2.70;;;2.50;;
37151;SDS011;23046;50.112;8.952;2023-05-13T00:29:35;2.67;;;2.43;;
37151;SDS011;23046;50.112;8.952;2023-05-13T00:29:45;3.07;;;2.60;;
37151;SDS011;23046;50.112;8.952;2023-05-13T00:29:56;3.20;;;2.63;;
37151;SDS011;23046;50.112;8.952;2023-05-13T00:30:08;3.53;;;2.63;;
37151;SDS011;23046;50.112;8.952;2023-05-13T00:30:19;3.40;;;2.60;;
37151;SDS011;23046;50.112;8.952;2023-05-13T00:30:29;4.43;;;2.70;;
37151;SDS011;23046;50.112;8.952;2023-05-13T00:30:42;4.05;;;2.75;;
37151;SDS011;23046;50.112;8.952;2023-05-13T00:30:54;3.95;;;2.63;;
37151;SDS011;23046;50.112;8.952;2023-05-13T00:31:04;3.10;;;2.60;;
37151;SDS011;23046;50.112;8.952;2023-05-13T00:31:14;2.80;;;2.60;;
37151;SDS011;23046;50.112;8.952;2023-05-13T00:31:25;2.72;;;2.53;;
37151;SDS011;23046;50.112;8.952;2023-05-13T00:31:35;2.70;;;2.50;;
37151;SDS011;23046;50.112;8.952;2023-05-13T00:31:46;2.72;;;2.53;;
37151;SDS011;23046;50.112;8.952;2023-05-13T00:31:56;2.80;;;2.50;;
37151;SDS011;23046;50.112;8.952;2023-05-13T00:32:06;2.90;;;2.60;;
37151;SDS011;23046;50.112;8.952;2023-05-13T00:32:17;3.10;;;2.60;;
37151;SDS011;23046;50.112;8.952;2023-05-13T00:32:27;3.00;;;2.67;;
37151;SDS011;23046;50.112;8.952;2023-05-13T00:32:37;2.93;;;2.57;;
37151;SDS011;23046;50.112;8.952;2023-05-13T00:32:47;2.60;;;2.40;;
37151;SDS011;23046;50.112;8.952;2023-05-13T00:32:58;2.53;;;2.33;;
37151;SDS011;23046;50.112;8.952;2023-05-13T00:33:08;3.83;;;2.30;;
37151;SDS011;23046;50.112;8.952;2023-05-13T00:33:18;4.10;;;2.30;;
37151;SDS011;23046;50.112;8.952;2023-05-13T00:33:29;4.35;;;2.55;;
37151;SDS011;23046;50.112;8.952;2023-05-13T00:33:39;3.00;;;2.70;;
37151;SDS011;23046;50.112;8.952;2023-05-13T00:33:49;3.20;;;2.60;;
37151;SDS011;23046;50.112;8.952;2023-05-13T00:34:00;3.53;;;2.37;;
37151;SDS011;23046;50.112;8.952;2023-05-13T00:34:10;3.58;;;2.30;;
37151;SDS011;23046;50.112;8.952;2023-05-13T00:34:20;3.07;;;2.50;;
37151;SDS011;23046;50.112;8.952;2023-05-13T00:34:31;2.67;;;2.47;;
37151;SDS011;23046;50.112;8.952;2023-05-13T00:34:41;2.80;;;2.57;;
37151;SDS011;23046;50.112;8.952;2023-05-13T00:34:51;2.70;;;2.50;;
37151;SDS011;23046;50.112;8.952;2023-05-13T00:35:01;2.90;;;2.60;;
37151;SDS011;23046;50.112;8.952;2023-05-13T00:35:12;2.72;;;2.50;;
37151;SDS011;23046;50.112;8.952;2023-05-13T00:35:22;2.70;;;2.50;;
37151;SDS011;23046;50.112;8.952;2023-05-13T00:35:33;2.77;;;2.57;;
37151;SDS011;23046;50.112;8.952;2023-05-13T00:35:43;2.73;;;2.53;;
37151;SDS011;23046;50.112;8.952;2023-05-13T00:35:53;2.95;;;2.50;;
37151;SDS011;23046;50.112;8.952;2023-05-13T00:36:03;2.83;;;2.47;;
37151;SDS011;23046;50.112;8.952;2023-05-13T00:36:14;2.60;;;2.40;;
37151;SDS011;23046;50.112;8.952;2023-05-13T00:36:24;2.58;;;2.38;;
37151;SDS011;23046;50.112;8.952;2023-05-13T00:36:36;2.63;;;2.42;;
37151;SDS011;23046;50.112;8.952;2023-05-13T00:36:46;2.60;;;2.40;;
37151;SDS011;23046;50.112;8.952;2023-05-13T00:36:56;2.57;;;2.40;;
37151;SDS011;23046;50.112;8.952;2023-05-13T00:37:06;2.63;;;2.43;;
37151;SDS011;23046;50.112;8.952;2023-05-13T00:37:19;2.60;;;2.40;;
37151;SDS011;23046;50.112;8.952;2023-05-13T00:37:29;2.70;;;2.50;;
37151;SDS011;23046;50.112;8.952;2023-05-13T00:37:39;2.90;;;2.70;;
37151;SDS011;23046;50.112;8.952;2023-05-13T00:37:49;3.00;;;2.70;;
37151;SDS011;23046;50.112;8.952;2023-05-13T00:38:00;2.90;;;2.67;;
37151;SDS011;23046;50.112;8.952;2023-05-13T00:38:10;2.83;;;2.33;;
37151;SDS011;23046;50.112;8.952;2023-05-13T00:38:20;2.58;;;2.20;;
37151;SDS011;23046;50.112;8.952;2023-05-13T00:38:31;2.67;;;2.30;;
37151;SDS011;23046;50.112;8.952;2023-05-13T00:38:41;2.72;;;2.53;;
37151;SDS011;23046;50.112;8.952;2023-05-13T00:38:53;2.92;;;2.72;;
37151;SDS011;23046;50.112;8.952;2023-05-13T00:39:04;2.83;;;2.63;;
37151;SDS011;23046;50.112;8.952;2023-05-13T00:39:14;2.77;;;2.57;;
37151;SDS011;23046;50.112;8.952;2023-05-13T00:39:24;2.90;;;2.60;;
37151;SDS011;23046;50.112;8.952;2023-05-13T00:39:35;2.97;;;2.73;;
37151;SDS011;23046;50.112;8.952;2023-05-13T00:39:45;3.10;;;2.57;;
37151;SDS011;23046;50.112;8.952;2023-05-13T00:39:55;2.60;;;2.40;;
37151;SDS011;23046;50.112;8.952;2023-05-13T00:40:06;2.70;;;2.35;;
37151;SDS011;23046;50.112;8.952;2023-05-13T00:40:20;2.75;;;2.55;;
37151;SDS011;23046;50.112;8.952;2023-05-13T00:40:30;2.90;;;2.70;;
37151;SDS011;23046;50.112;8.952;2023-05-13T00:40:42;2.95;;;2.75;;
37151;SDS011;23046;50.112;8.952;2023-05-13T00:40:53;3.00;;;2.80;;
37151;SDS011;23046;50.112;8.952;2023-05-13T00:41:04;3.00;;;2.80;;
37151;SDS011;23046;50.112;8.952;2023-05-13T00:41:14;2.97;;;2.78;;
37151;SDS011;23046;50.112;8.952;2023-05-13T00:41:25;2.83;;;2.60;;
37151;SDS011;23046;50.112;8.952;2023-05-13T00:41:35;2.97;;;2.50;;
37151;SDS011;23046;50.112;8.952;2023-05-13T00:41:45;2.63;;;2.30;;
37151;SDS011;23046;50.112;8.952;2023-05-13T00:41:55;3.33;;;2.40;;
37151;SDS011;23046;50.112;8.952;2023-05-13T00:42:05;3.23;;;2.40;;
37151;SDS011;23046;50.112;8.952;2023-05-13T00:42:16;3.67;;;2.57;;
37151;SDS011;23046;50.112;8.952;2023-05-13T00:42:26;3.15;;;2.53;;
37151;SDS011;23046;50.112;8.952;2023-05-13T00:42:36;2.93;;;2.50;;
37151;SDS011;23046;50.112;8.952;2023-05-13T00:42:47;2.83;;;2.30;;
37151;SDS011;23046;50.112;8.952;2023-05-13T00:42:57;2.73;;;2.40;;
37151;SDS011;23046;50.112;8.952;2023-05-13T00:43:07;3.47;;;2.50;;
37151;SDS011;23046;50.112;8.952;2023-05-13T00:43:17;2.95;;;2.65;;
37151;SDS011;23046;50.112;8.952;2023-05-13T00:43:28;2.70;;;2.50;;
37151;SDS011;23046;50.112;8.952;2023-05-13T00:43:38;2.60;;;2.40;;
37151;SDS011;23046;50.112;8.952;2023-05-13T00:43:48;2.60;;;2.40;;
37151;SDS011;23046;50.112;8.952;2023-05-13T00:43:59;2.90;;;2.60;;
37151;SDS011;23046;50.112;8.952;2023-05-13T00:44:09;2.90;;;2.60;;
37151;SDS011;23046;50.112;8.952;2023-05-13T00:44:19;2.73;;;2.53;;
37151;SDS011;23046;50.112;8.952;2023-05-13T00:44:29;2.75;;;2.55;;
37151;SDS011;23046;50.112;8.952;2023-05-13T00:44:40;2.80;;;2.60;;
37151;SDS011;23046;50.112;8.952;2023-05-13T00:44:50;2.70;;;2.50;;
37151;SDS011;23046;50.112;8.952;2023-05-13T00:45:00;2.38;;;2.28;;
37151;SDS011;23046;50.112;8.952;2023-05-13T00:45:11;2.50;;;2.40;;
37151;SDS011;23046;50.112;8.952;2023-05-13T00:45:21;2.50;;;2.30;;
37151;SDS011;23046;50.112;8.952;2023-05-13T00:45:31;3.27;;;2.50;;
37151;SDS011;23046;50.112;8.952;2023-05-13T00:45:41;3.53;;;2.40;;
37151;SDS011;23046;50.112;8.952;2023-05-13T00:45:52;3.40;;;2.40;;
37151;SDS011;23046;50.112;8.952;2023-05-13T00:46:02;2.60;;;2.40;;
37151;SDS011;23046;50.112;8.952;2023-05-13T00:46:13;2.60;;;2.40;;
37151;SDS011;23046;50.112;8.952;2023-05-13T00:46:23;2.42;;;2.22;;
37151;SDS011;23046;50.112;8.952;2023-05-13T00:46:33;2.20;;;2.10;;
37151;SDS011;23046;50.112;8.952;2023-05-13T00:46:44;2.43;;;2.23;;
37151;SDS011;23046;50.112;8.952;2023-05-13T00:46:55;2.72;;;2.53;;
37151;SDS011;23046;50.112;8.952;2023-05-13T00:47:05;3.10;;;2.80;;
37151;SDS011;23046;50.112;8.952;2023-05-13T00:47:16;2.85;;;2.65;;
37151;SDS011;23046;50.112;8.952;2023-05-13T00:47:26;3.00;;;2.43;;
37151;SDS011;23046;50.112;8.952;2023-05-13T00:47:37;2.60;;;2.40;;
37151;SDS011;23046;50.112;8.952;2023-05-13T00:47:47;2.70;;;2.50;;
37151;SDS011;23046;50.112;8.952;2023-05-13T00:47:58;2.63;;;2.53;;
37151;SDS011;23046;50.112;8.952;2023-05-13T00:48:09;2.70;;;2.50;;
37151;SDS011;23046;50.112;8.952;2023-05-13T00:48:19;2.77;;;2.57;;
37151;SDS011;23046;50.112;8.952;2023-05-13T00:48:30;3.25;;;2.90;;
37151;SDS011;23046;50.112;8.952;2023-05-13T00:48:41;3.45;;;3.03;;
37151;SDS011;23046;50.112;8.952;2023-05-13T00:48:52;3.47;;;2.97;;
37151;SDS011;23046;50.112;8.952;2023-05-13T00:49:03;3.00;;;2.70;;
37151;SDS011;23046;50.112;8.952;2023-05-13T00:49:13;2.90;;;2.60;;
37151;SDS011;23046;50.112;8.952;2023-05-13T00:49:24;2.70;;;2.50;;
37151;SDS011;23046;50.112;8.952;2023-05-13T00:49:34;2.70;;;2.50;;
37151;SDS011;23046;50.112;8.952;2023-05-13T00:49:45;2.72;;;2.53;;
37151;SDS011;23046;50.112;8.952;2023-05-13T00:49:56;2.90;;;2.60;;
37151;SDS011;23046;50.112;8.952;2023-05-13T00:50:07;2.90;;;2.60;;
37151;SDS011;23046;50.112;8.952;2023-05-13T00:50:17;2.90;;;2.60;;
37151;SDS011;23046;50.112;8.952;2023-05-13T00:50:28;2.70;;;2.50;;
37151;SDS011;23046;50.112;8.952;2023-05-13T00:50:38;2.60;;;2.40;;
37151;SDS011;23046;50.112;8.952;2023-05-13T00:50:51;2.45;;;2.25;;
37151;SDS011;23046;50.112;8.952;2023-05-13T00:51:01;2.60;;;2.40;;
37151;SDS011;23046;50.112;8.952;2023-05-13T00:51:11;2.57;;;2.37;;
37151;SDS011;23046;50.112;8.952;2023-05-13T00:51:22;2.42;;;2.30;;
37151;SDS011;23046;50.112;8.952;2023-05-13T00:51:32;2.60;;;2.40;;
37151;SDS011;23046;50.112;8.952;2023-05-13T00:51:43;2.60;;;2.40;;
37151;SDS011;23046;50.112;8.952;2023-05-13T00:51:53;2.70;;;2.50;;
37151;SDS011;23046;50.112;8.952;2023-05-13T00:52:04;2.50;;;2.30;;
37151;SDS011;23046;50.112;8.952;2023-05-13T00:52:15;2.60;;;2.40;;
37151;SDS011;23046;50.112;8.952;2023-05-13T00:52:25;2.50;;;2.30;;
37151;SDS011;23046;50.112;8.952;2023-05-13T00:52:36;2.63;;;2.42;;
37151;SDS011;23046;50.112;8.952;2023-05-13T00:52:47;2.72;;;2.53;;
37151;SDS011;23046;50.112;8.952;2023-05-13T00:52:58;2.75;;;2.55;;
37151;SDS011;23046;50.112;8.952;2023-05-13T00:53:09;2.93;;;2.40;;
37151;SDS011;23046;50.112;8.952;2023-05-13T00:53:20;3.38;;;2.50;;
37151;SDS011;23046;50.112;8.952;2023-05-13T00:53:31;3.23;;;2.53;;
37151;SDS011;23046;50.112;8.952;2023-05-13T00:53:41;2.70;;;2.50;;
37151;SDS011;23046;50.112;8.952;2023-05-13T00:53:52;2.70;;;2.50;;
37151;SDS011;23046;50.112;8.952;2023-05-13T00:54:02;2.50;;;2.30;;
37151;SDS011;23046;50.112;8.952;2023-05-13T00:54:13;2.55;;;2.35;;
37151;SDS011;23046;50.112;8.952;2023-05-13T00:54:23;2.60;;;2.40;;
37151;SDS011;23046;50.112;8.952;2023-05-13T00:54:34;3.47;;;2.60;;
37151;SDS011;23046;50.112;8.952;2023-05-13T00:54:44;4.80;;;2.63;;
37151;SDS011;23046;50.112;8.952;2023-05-13T00:54:55;5.20;;;2.70;;
37151;SDS011;23046;50.112;8.952;2023-05-13T00:55:05;3.27;;;2.60;;
37151;SDS011;23046;50.112;8.952;2023-05-13T00:55:16;2.80;;;2.60;;
37151;SDS011;23046;50.112;8.952;2023-05-13T00:55:26;2.70;;;2.50;;
37151;SDS011;23046;50.112;8.952;2023-05-13T00:55:40;2.80;;;2.60;;
37151;SDS011;23046;50.112;8.952;2023-05-13T00:55:50;2.70;;;2.50;;
37151;SDS011;23046;50.112;8.952;2023-05-13T00:56:01;2.70;;;2.50;;
37151;SDS011;23046;50.112;8.952;2023-05-13T00:56:11;2.60;;;2.40;;
37151;SDS011;23046;50.112;8.952;2023-05-13T00:56:23;2.70;;;2.50;;
37151;SDS011;23046;50.112;8.952;2023-05-13T00:56:36;2.55;;;2.35;;
37151;SDS011;23046;50.112;8.952;2023-05-13T00:56:46;2.40;;;2.30;;
37151;SDS011;23046;50.112;8.952;2023-05-13T00:56:56;2.33;;;2.23;;
37151;SDS011;23046;50.112;8.952;2023-05-13T00:57:07;2.50;;;2.30;;
37151;SDS011;23046;50.112;8.952;2023-05-13T00:57:17;2.63;;;2.43;;
37151;SDS011;23046;50.112;8.952;2023-05-13T00:57:27;2.67;;;2.47;;
37151;SDS011;23046;50.112;8.952;2023-05-13T00:57:38;3.05;;;2.38;;
37151;SDS011;23046;50.112;8.952;2023-05-13T00:57:51;3.53;;;2.50;;
37151;SDS011;23046;50.112;8.952;2023-05-13T00:58:01;2.80;;;2.53;;
37151;SDS011;23046;50.112;8.952;2023-05-13T00:58:12;2.87;;;2.63;;
37151;SDS011;23046;50.112;8.952;2023-05-13T00:58:23;2.72;;;2.53;;
37151;SDS011;23046;50.112;8.952;2023-05-13T00:58:33;2.87;;;2.67;;
37151;SDS011;23046;50.112;8.952;2023-05-13T00:58:44;2.80;;;2.60;;
37151;SDS011;23046;50.112;8.952;2023-05-13T00:58:54;2.73;;;2.53;;
37151;SDS011;23046;50.112;8.952;2023-05-13T00:59:04;2.70;;;2.50;;
37151;SDS011;23046;50.112;8.952;2023-05-13T00:59:14;2.60;;;2.40;;
37151;SDS011;23046;50.112;8.952;2023-05-13T00:59:25;2.73;;;2.53;;
37151;SDS011;23046;50.112;8.952;2023-05-13T00:59:36;2.65;;;2.45;;
37151;SDS011;23046;50.112;8.952;2023-05-13T00:59:46;2.70;;;2.50;;
37151;SDS011;23046;50.112;8.952;2023-05-13T00:59:57;2.60;;;2.50;;
37151;SDS011;23046;50.112;8.952;2023-05-13T01:00:07;2.63;;;2.50;;
37151;SDS011;23046;50.112;8.952;2023-05-13T01:00:18;2.73;;;2.53;;
37151;SDS011;23046;50.112;8.952;2023-05-13T01:00:29;2.63;;;2.42;;
37151;SDS011;23046;50.112;8.952;2023-05-13T01:00:53;2.65;;;2.45;;
37151;SDS011;23046;50.112;8.952;2023-05-13T01:01:12;2.97;;;2.60;;
37151;SDS011;23046;50.112;8.952;2023-05-13T01:01:56;2.88;;;2.67;;
37151;SDS011;23046;50.112;8.952;2023-05-13T01:02:16;2.75;;;2.55;;
37151;SDS011;23046;50.112;8.952;2023-05-13T01:02:32;2.90;;;2.60;;
37151;SDS011;23046;50.112;8.952;2023-05-13T01:03:05;3.00;;;2.70;;
37151;SDS011;23046;50.112;8.952;2023-05-13T01:03:35;2.60;;;2.40;;
37151;SDS011;23046;50.112;8.952;2023-05-13T01:04:26;2.78;;;2.58;;
37151;SDS011;23046;50.112;8.952;2023-05-13T01:05:37;2.90;;;2.70;;
37151;SDS011;23046;50.112;8.952;2023-05-13T01:06:04;2.80;;;2.60;;
37151;SDS011;23046;50.112;8.952;2023-05-13T01:07:36;2.70;;;2.50;;
37151;SDS011;23046;50.112;8.952;2023-05-13T01:08:36;2.50;;;2.40;;
37151;SDS011;23046;50.112;8.952;2023-05-13T01:08:56;2.60;;;2.40;;
37151;SDS011;23046;50.112;8.952;2023-05-13T01:09:46;2.60;;;2.40;;
37151;SDS011;23046;50.112;8.952;2023-05-13T01:10:11;2.60;;;2.40;;
37151;SDS011;23046;50.112;8.952;2023-05-13T01:11:00;2.90;;;2.63;;